Lacarne, Ohio
Current Conditions -  °F | °C
As of 9:13 AM on Monday 20 Oct 2014 (Local Time) from KPCW Reporting Station
Overcast Overcast  
Wind Chill: 52°   Ceiling: 9000
Heat Index: 52°   Visibility: 9mi
Dew Point: 45°   Wind: 10mph
Humidity: 76%   Direction: 210°SSW
Pressure: 29.89"   Gusts: NA
Location:  41.52°N, 83.04°W
Report Text: KPCW 201313Z AUTO 21009KT 9SM OVC090 11/07 A2989 RMK AO2 $
Loading
Personal Weather Stations






























Interactive Weather Map
Tropical Storm Tracking
New forecast layout! Learn more

10-Day Weather Forecast

Advertisements
Track Severe Weather on mobile